Time;durP1;ratioP1;P1;durP2;ratioP2;P2;SDS_P1;SDS_P2;PMS_P1;PMS_P2;Temp;Humidity;BMP_temperature;BMP_pressure;BME280_temperature;BME280_humidity;BME280_pressure;Samples;Min_cycle;Max_cycle;Signal;HPM_P1;HPM_P2
2021/06/06 00:01:16;;;;;;;8.75;5.43;;;;;;;;;;4878636;29;20025;-40
2021/06/06 00:03:43;;;;;;;11.10;5.40;;;;;;;;;;4878784;29;20112;-39
2021/06/06 00:06:15;;;;;;;5.05;4.45;;;;;;;;;;4878628;29;20029;-39
2021/06/06 00:08:40;;;;;;;4.85;4.07;;;;;;;;;;4878339;29;20072;-40
2021/06/06 00:11:12;;;;;;;6.38;4.50;;;;;;;;;;4878623;29;20428;-40
2021/06/06 00:13:39;;;;;;;4.38;3.90;;;;;;;;;;4878474;29;20033;-40
2021/06/06 00:16:05;;;;;;;6.20;4.50;;;;;;;;;;4878789;29;20021;-39
2021/06/06 00:18:31;;;;;;;6.70;4.63;;;;;;;;;;4878565;29;20037;-39
2021/06/06 00:20:56;;;;;;;5.07;4.05;;;;;;;;;;4878337;29;20036;-39
2021/06/06 00:23:22;;;;;;;6.90;4.35;;;;;;;;;;4878533;29;20032;-40
2021/06/06 00:25:47;;;;;;;8.98;4.32;;;;;;;;;;4878350;29;20699;-38
2021/06/06 00:28:12;;;;;;;5.53;4.50;;;;;;;;;;4878563;29;20044;-40
2021/06/06 00:30:38;;;;;;;7.22;4.63;;;;;;;;;;4878323;29;20027;-38
2021/06/06 00:33:04;;;;;;;9.48;5.70;;;;;;;;;;4878659;29;20092;-40
2021/06/06 00:35:29;;;;;;;10.50;5.65;;;;;;;;;;4877093;29;20045;-39
2021/06/06 00:37:55;;;;;;;9.38;5.25;;;;;;;;;;4877931;29;20194;-39
2021/06/06 00:40:24;;;;;;;9.63;5.35;;;;;;;;;;4878605;29;20444;-39
2021/06/06 00:42:50;;;;;;;6.90;5.47;;;;;;;;;;4878450;29;20085;-39
2021/06/06 00:45:21;;;;;;;7.78;5.22;;;;;;;;;;4876964;29;20029;-39
2021/06/06 00:47:46;;;;;;;8.00;5.53;;;;;;;;;;4876895;29;20037;-38
2021/06/06 00:50:15;;;;;;;9.57;5.80;;;;;;;;;;4876919;29;20032;-40
2021/06/06 00:52:41;;;;;;;9.45;6.00;;;;;;;;;;4878184;29;20036;-39
2021/06/06 00:55:08;;;;;;;15.07;5.38;;;;;;;;;;4878826;29;20021;-39
2021/06/06 00:57:35;;;;;;;10.95;6.55;;;;;;;;;;4881506;29;20092;-39
2021/06/06 01:00:07;;;;;;;7.90;5.82;;;;;;;;;;4880386;29;20029;-39
2021/06/06 01:02:38;;;;;;;9.93;6.57;;;;;;;;;;4881561;29;20081;-39
2021/06/06 01:05:06;;;;;;;10.05;6.60;;;;;;;;;;4881494;29;20444;-39
2021/06/06 01:07:34;;;;;;;8.40;6.25;;;;;;;;;;4864777;29;20388;-39
2021/06/06 01:09:59;;;;;;;11.52;5.35;;;;;;;;;;4881291;29;20025;-39
2021/06/06 01:12:28;;;;;;;7.38;6.07;;;;;;;;;;4880040;29;20036;-39
2021/06/06 01:15:04;;;;;;;11.35;6.82;;;;;;;;;;4880039;29;20033;-41
2021/06/06 01:17:41;;;;;;;10.35;6.90;;;;;;;;;;4879988;29;20026;-39
2021/06/06 01:20:13;;;;;;;9.43;6.68;;;;;;;;;;4881466;29;20034;-40
2021/06/06 01:22:38;;;;;;;10.00;6.78;;;;;;;;;;4864454;29;20676;-39
2021/06/06 01:25:28;;;;;;;8.10;6.15;;;;;;;;;;4879849;29;20135;-39
2021/06/06 01:28:16;;;;;;;8.23;5.95;;;;;;;;;;4879665;29;20044;-39
2021/06/06 01:30:48;;;;;;;11.20;6.50;;;;;;;;;;4895194;29;20032;-39
2021/06/06 01:33:14;;;;;;;10.15;5.50;;;;;;;;;;4879657;29;20033;-39
2021/06/06 01:35:53;;;;;;;7.15;5.30;;;;;;;;;;4879548;29;20029;-39
2021/06/06 01:38:23;;;;;;;7.20;5.88;;;;;;;;;;4879469;29;20041;-39
2021/06/06 01:40:51;;;;;;;9.00;6.60;;;;;;;;;;4881082;29;20040;-39
2021/06/06 01:43:20;;;;;;;7.28;5.05;;;;;;;;;;4880853;29;20368;-39
2021/06/06 01:45:53;;;;;;;10.93;6.10;;;;;;;;;;4879396;29;20064;-40
2021/06/06 01:48:19;;;;;;;6.93;5.50;;;;;;;;;;4863948;29;20571;-40
2021/06/06 01:50:52;;;;;;;7.50;5.30;;;;;;;;;;4880614;29;20456;-40
2021/06/06 01:53:18;;;;;;;11.07;6.38;;;;;;;;;;4880564;29;20511;-39
2021/06/06 01:55:48;;;;;;;6.10;5.25;;;;;;;;;;4880743;29;20036;-39
2021/06/06 01:58:15;;;;;;;10.18;5.75;;;;;;;;;;4879344;29;20116;-39
2021/06/06 02:00:56;;;;;;;8.65;5.72;;;;;;;;;;4865451;29;20028;-39
2021/06/06 02:03:29;;;;;;;8.82;6.05;;;;;;;;;;4880439;29;20033;-39
2021/06/06 02:05:57;;;;;;;8.45;6.20;;;;;;;;;;4879045;29;20029;-39
2021/06/06 02:08:27;;;;;;;8.40;6.30;;;;;;;;;;4880221;29;20032;-39
2021/06/06 02:10:57;;;;;;;10.15;6.28;;;;;;;;;;4878991;29;20043;-39
2021/06/06 02:13:44;;;;;;;7.28;5.72;;;;;;;;;;4879101;29;20033;-40
2021/06/06 02:16:16;;;;;;;7.47;4.82;;;;;;;;;;4880104;29;20037;-40
2021/06/06 02:18:43;;;;;;;8.38;6.18;;;;;;;;;;4880008;29;20070;-39
2021/06/06 02:21:15;;;;;;;6.72;5.85;;;;;;;;;;4878879;29;20036;-39
2021/06/06 02:23:43;;;;;;;8.40;6.35;;;;;;;;;;4878750;29;20039;-39
2021/06/06 02:26:10;;;;;;;9.13;6.13;;;;;;;;;;4878704;29;20044;-40
2021/06/06 02:28:39;;;;;;;8.20;7.18;;;;;;;;;;4878856;29;20045;-39
2021/06/06 02:31:11;;;;;;;7.32;6.40;;;;;;;;;;4880154;29;20061;-39
2021/06/06 02:33:51;;;;;;;7.38;5.85;;;;;;;;;;4878695;29;20116;-39
2021/06/06 02:36:26;;;;;;;6.32;5.72;;;;;;;;;;4878431;29;20076;-40
2021/06/06 02:39:00;;;;;;;9.15;6.05;;;;;;;;;;4879803;29;20037;-39
2021/06/06 02:41:33;;;;;;;10.45;6.07;;;;;;;;;;4878510;29;20037;-39
2021/06/06 02:44:01;;;;;;;;;;;;;;;;;;4880047;29;20059;-40
2021/06/06 02:46:32;;;;;;;7.20;5.82;;;;;;;;;;4878372;29;19908;-39
2021/06/06 02:49:03;;;;;;;13.05;6.35;;;;;;;;;;4879561;29;20048;-39
2021/06/06 02:51:37;;;;;;;8.52;5.85;;;;;;;;;;4879745;29;20032;-39
2021/06/06 02:54:05;;;;;;;9.57;5.85;;;;;;;;;;4878206;29;20037;-39
2021/06/06 02:56:41;;;;;;;8.13;5.80;;;;;;;;;;4878169;29;20482;-39
2021/06/06 02:59:11;;;;;;;9.57;6.38;;;;;;;;;;4879710;29;20033;-39
2021/06/06 03:01:39;;;;;;;8.38;5.78;;;;;;;;;;4878176;29;20120;-39
2021/06/06 03:04:13;;;;;;;7.40;5.88;;;;;;;;;;4879445;29;20041;-39
2021/06/06 03:06:42;;;;;;;9.95;6.40;;;;;;;;;;4879087;29;20116;-40
2021/06/06 03:09:10;;;;;;;8.35;5.75;;;;;;;;;;4878021;29;20072;-39
2021/06/06 03:11:39;;;;;;;10.27;6.93;;;;;;;;;;4877986;29;20029;-39
2021/06/06 03:14:10;;;;;;;7.93;5.35;;;;;;;;;;4878009;29;20063;-39
2021/06/06 03:16:55;;;;;;;8.38;6.10;;;;;;;;;;4877883;29;20040;-40
2021/06/06 03:19:24;;;;;;;9.60;5.47;;;;;;;;;;4877593;29;20085;-39
2021/06/06 03:21:51;;;;;;;8.63;6.05;;;;;;;;;;4877735;29;20049;-39
2021/06/06 03:24:24;;;;;;;6.55;5.85;;;;;;;;;;4879112;29;20115;-39
2021/06/06 03:26:56;;;;;;;8.23;7.32;;;;;;;;;;4878867;29;20119;-39
2021/06/06 03:29:28;;;;;;;8.70;6.40;;;;;;;;;;4877742;29;20519;-39
2021/06/06 03:32:06;;;;;;;9.52;6.03;;;;;;;;;;4877683;29;20395;-39
2021/06/06 03:34:32;;;;;;;9.40;6.57;;;;;;;;;;4877681;29;20036;-39
2021/06/06 03:37:02;;;;;;;7.72;5.78;;;;;;;;;;4877404;29;20590;-39
2021/06/06 03:40:00;;;;;;;14.15;5.60;;;;;;;;;;4877617;29;20073;-39
2021/06/06 03:42:44;;;;;;;8.75;5.30;;;;;;;;;;4878051;29;20040;-39
2021/06/06 03:45:12;;;;;;;7.65;5.25;;;;;;;;;;4878559;29;20120;-39
2021/06/06 03:47:39;;;;;;;7.88;5.78;;;;;;;;;;4878532;29;20028;-39
2021/06/06 03:50:07;;;;;;;7.65;6.00;;;;;;;;;;4878677;29;20035;-39
2021/06/06 03:52:36;;;;;;;10.38;5.88;;;;;;;;;;4878641;29;20029;-39
2021/06/06 03:55:06;;;;;;;6.63;4.88;;;;;;;;;;4877594;29;20040;-39
2021/06/06 03:57:33;;;;;;;7.20;5.28;;;;;;;;;;4878679;29;20025;-39
2021/06/06 03:59:59;;;;;;;8.63;5.63;;;;;;;;;;4878693;29;20041;-39
2021/06/06 04:02:24;;;;;;;12.52;5.65;;;;;;;;;;4877371;29;20025;-39
2021/06/06 04:04:51;;;;;;;5.55;5.00;;;;;;;;;;4877344;29;20072;-39
2021/06/06 04:07:18;;;;;;;7.25;4.78;;;;;;;;;;4877474;29;20028;-39
2021/06/06 04:09:44;;;;;;;6.82;5.05;;;;;;;;;;4877085;29;20045;-39
2021/06/06 04:12:11;;;;;;;11.55;5.85;;;;;;;;;;4878944;29;20059;-39
2021/06/06 04:14:38;;;;;;;7.05;4.88;;;;;;;;;;4877323;29;20060;-39
2021/06/06 04:17:04;;;;;;;7.95;5.93;;;;;;;;;;4877161;29;20472;-39
2021/06/06 04:19:33;;;;;;;9.38;5.20;;;;;;;;;;4877295;29;20074;-39
2021/06/06 04:21:58;;;;;;;8.82;6.40;;;;;;;;;;4878344;29;20033;-39
2021/06/06 04:24:25;;;;;;;10.02;6.30;;;;;;;;;;4877259;29;20365;-39
2021/06/06 04:26:53;;;;;;;10.25;5.22;;;;;;;;;;4877137;29;20166;-40
2021/06/06 04:29:21;;;;;;;6.53;5.10;;;;;;;;;;4877204;29;20044;-38
2021/06/06 04:31:48;;;;;;;8.68;6.25;;;;;;;;;;4879931;29;20084;-40
2021/06/06 04:34:17;;;;;;;11.85;6.47;;;;;;;;;;4882002;29;20037;-39
2021/06/06 04:36:47;;;;;;;9.10;7.38;;;;;;;;;;4880555;29;20440;-40
2021/06/06 04:39:16;;;;;;;8.18;7.32;;;;;;;;;;4880717;29;20554;-39
2021/06/06 04:41:44;;;;;;;11.52;7.57;;;;;;;;;;4881820;29;20088;-39
2021/06/06 04:44:10;;;;;;;6.47;5.28;;;;;;;;;;4880588;29;20121;-39
2021/06/06 04:46:36;;;;;;;9.00;6.90;;;;;;;;;;4881722;29;20080;-39
2021/06/06 04:49:01;;;;;;;12.00;7.00;;;;;;;;;;4881708;29;20543;-39
2021/06/06 04:51:28;;;;;;;11.57;6.57;;;;;;;;;;4881660;29;20025;-39
2021/06/06 04:54:01;;;;;;;8.63;5.90;;;;;;;;;;4880412;29;20146;-39
2021/06/06 04:56:28;;;;;;;10.63;6.75;;;;;;;;;;4880327;29;20041;-40
2021/06/06 04:58:57;;;;;;;9.85;6.80;;;;;;;;;;4880294;29;20029;-39
2021/06/06 05:01:24;;;;;;;14.60;7.70;;;;;;;;;;4880322;29;20029;-39
2021/06/06 05:03:50;;;;;;;5.53;3.47;;;;;;;;;;4881425;29;20081;-39
2021/06/06 05:06:17;;;;;;;3.50;2.08;;;;;;;;;;4880185;29;20451;-39
2021/06/06 05:08:44;;;;;;;10.77;4.97;;;;;;;;;;4880018;29;20112;-38
2021/06/06 05:11:11;;;;;;;13.85;6.50;;;;;;;;;;4880143;29;20041;-38
2021/06/06 05:13:37;;;;;;;7.97;5.63;;;;;;;;;;4881202;29;20031;-39
2021/06/06 05:16:04;;;;;;;8.50;5.05;;;;;;;;;;4879948;29;20425;-39
2021/06/06 05:18:30;;;;;;;8.30;3.95;;;;;;;;;;4880045;29;20480;-42
2021/06/06 05:20:58;;;;;;;9.40;4.55;;;;;;;;;;4879781;29;20124;-39
2021/06/06 05:23:26;;;;;;;6.30;4.30;;;;;;;;;;4881255;29;20634;-40
2021/06/06 05:25:55;;;;;;;10.45;6.43;;;;;;;;;;4881056;29;20033;-40
2021/06/06 05:28:25;;;;;;;7.47;5.60;;;;;;;;;;4881273;29;20595;-39
2021/06/06 05:30:51;;;;;;;9.10;5.07;;;;;;;;;;4881028;29;20120;-38
2021/06/06 05:33:16;;;;;;;8.07;4.95;;;;;;;;;;4881032;29;20603;-39
2021/06/06 05:35:42;;;;;;;7.03;5.25;;;;;;;;;;4879602;29;20029;-41
2021/06/06 05:38:09;;;;;;;6.90;4.65;;;;;;;;;;4879591;29;20120;-38
2021/06/06 05:40:35;;;;;;;9.88;4.22;;;;;;;;;;4881277;29;20445;-39
2021/06/06 05:43:02;;;;;;;7.30;4.57;;;;;;;;;;4880352;29;20513;-39
2021/06/06 05:45:28;;;;;;;5.80;4.22;;;;;;;;;;4880778;29;20029;-38
2021/06/06 05:47:53;;;;;;;8.07;4.45;;;;;;;;;;4880888;29;20480;-38
2021/06/06 05:50:21;;;;;;;7.70;4.90;;;;;;;;;;4880893;29;20116;-38
2021/06/06 05:52:58;;;;;;;8.88;4.13;;;;;;;;;;4879398;29;20021;-39
2021/06/06 05:55:24;;;;;;;11.30;4.25;;;;;;;;;;4880759;29;20384;-38
2021/06/06 05:57:49;;;;;;;7.93;4.60;;;;;;;;;;4880489;29;20483;-39
2021/06/06 06:00:19;;;;;;;7.00;5.25;;;;;;;;;;4880628;29;20147;-39
2021/06/06 06:02:45;;;;;;;7.22;3.92;;;;;;;;;;4880404;29;20093;-39
2021/06/06 06:05:10;;;;;;;9.68;4.43;;;;;;;;;;4880419;29;20445;-39
2021/06/06 06:07:36;;;;;;;6.03;4.00;;;;;;;;;;4880635;29;20033;-39
2021/06/06 06:10:05;;;;;;;4.80;3.65;;;;;;;;;;4880215;29;20400;-38
2021/06/06 06:12:30;;;;;;;4.50;3.65;;;;;;;;;;4880344;29;20100;-39
2021/06/06 06:14:55;;;;;;;6.25;4.25;;;;;;;;;;4880212;29;20120;-39
2021/06/06 06:17:21;;;;;;;5.28;4.10;;;;;;;;;;4880142;29;20033;-39
2021/06/06 06:19:46;;;;;;;6.03;3.55;;;;;;;;;;4880338;29;20085;-39
2021/06/06 06:22:12;;;;;;;8.75;3.17;;;;;;;;;;4880143;29;20025;-39
2021/06/06 06:24:37;;;;;;;4.93;4.28;;;;;;;;;;4880313;29;20476;-39
2021/06/06 06:27:03;;;;;;;5.65;3.55;;;;;;;;;;4878754;29;20483;-39
2021/06/06 06:30:05;;;;;;;7.95;4.07;;;;;;;;;;4879368;29;20064;-38
2021/06/06 06:32:40;;;;;;;4.75;3.40;;;;;;;;;;4879952;29;20547;-39
2021/06/06 06:35:06;;;;;;;3.75;2.95;;;;;;;;;;4879852;29;20251;-39
2021/06/06 06:37:32;;;;;;;7.25;3.08;;;;;;;;;;4878501;29;20041;-39
2021/06/06 06:39:57;;;;;;;3.67;3.10;;;;;;;;;;4878506;29;20102;-38
2021/06/06 06:42:23;;;;;;;4.53;3.00;;;;;;;;;;4879781;29;20021;-39
2021/06/06 06:44:48;;;;;;;3.70;3.05;;;;;;;;;;4879632;29;20084;-43
2021/06/06 06:47:16;;;;;;;4.32;3.55;;;;;;;;;;4878355;29;20469;-39
2021/06/06 06:49:42;;;;;;;4.00;3.50;;;;;;;;;;4879634;29;20115;-39
2021/06/06 06:52:07;;;;;;;4.45;3.38;;;;;;;;;;4879832;29;20126;-39
2021/06/06 06:54:33;;;;;;;3.60;2.70;;;;;;;;;;4877592;29;20119;-39
2021/06/06 06:56:58;;;;;;;7.45;3.10;;;;;;;;;;4879420;29;20029;-39
2021/06/06 06:59:27;;;;;;;2.95;2.50;;;;;;;;;;4879453;29;20033;-38
2021/06/06 07:01:56;;;;;;;5.18;3.63;;;;;;;;;;4879609;29;20111;-39
2021/06/06 07:04:21;;;;;;;3.28;2.67;;;;;;;;;;4879444;29;20043;-39
2021/06/06 07:06:47;;;;;;;6.53;2.85;;;;;;;;;;4879163;29;20103;-39
2021/06/06 07:09:13;;;;;;;4.78;3.33;;;;;;;;;;4879272;29;20052;-39
2021/06/06 07:11:38;;;;;;;4.80;3.60;;;;;;;;;;4878027;29;20024;-39
2021/06/06 07:14:04;;;;;;;6.13;4.22;;;;;;;;;;4879167;29;20565;-39
2021/06/06 07:16:29;;;;;;;6.15;3.70;;;;;;;;;;4879210;29;20080;-39
2021/06/06 07:18:55;;;;;;;5.82;3.55;;;;;;;;;;4879385;29;20025;-39
2021/06/06 07:21:22;;;;;;;6.53;2.88;;;;;;;;;;4879125;29;20027;-40
2021/06/06 07:23:47;;;;;;;5.03;3.58;;;;;;;;;;4879000;29;20033;-39
2021/06/06 07:26:18;;;;;;;6.45;3.25;;;;;;;;;;4879357;29;20031;-39
2021/06/06 07:28:44;;;;;;;5.15;2.92;;;;;;;;;;4878905;29;20033;-39
2021/06/06 07:31:10;;;;;;;3.83;3.40;;;;;;;;;;4879003;29;20028;-39
2021/06/06 07:33:38;;;;;;;5.03;3.10;;;;;;;;;;4878987;29;20052;-39
2021/06/06 07:36:04;;;;;;;3.60;3.10;;;;;;;;;;4878669;29;20024;-39
2021/06/06 07:38:30;;;;;;;7.53;3.22;;;;;;;;;;4877700;29;20048;-40
2021/06/06 07:40:56;;;;;;;4.13;3.72;;;;;;;;;;4877632;29;20029;-39
2021/06/06 07:43:22;;;;;;;4.40;3.58;;;;;;;;;;4878781;29;20100;-39
2021/06/06 07:45:48;;;;;;;3.95;3.55;;;;;;;;;;4878688;29;20104;-39
2021/06/06 07:48:13;;;;;;;8.57;4.20;;;;;;;;;;4878766;29;20048;-39
2021/06/06 07:50:40;;;;;;;6.63;3.70;;;;;;;;;;4878776;29;20029;-39
2021/06/06 07:53:06;;;;;;;3.80;3.40;;;;;;;;;;4877619;29;20029;-39
2021/06/06 07:55:33;;;;;;;6.38;3.22;;;;;;;;;;4877457;29;20507;-39
2021/06/06 07:57:58;;;;;;;3.90;3.15;;;;;;;;;;4878598;29;20021;-39
2021/06/06 08:00:28;;;;;;;4.43;3.28;;;;;;;;;;4878695;29;20033;-39
2021/06/06 08:02:54;;;;;;;3.78;2.97;;;;;;;;;;4878683;29;20076;-39
2021/06/06 08:05:20;;;;;;;4.63;2.88;;;;;;;;;;4879682;29;20052;-39
2021/06/06 08:07:45;;;;;;;6.28;3.42;;;;;;;;;;4882331;29;20032;-39
2021/06/06 08:10:12;;;;;;;4.05;3.58;;;;;;;;;;4881229;29;20032;-39
2021/06/06 08:12:37;;;;;;;3.67;3.38;;;;;;;;;;4882372;29;20025;-39
2021/06/06 08:15:04;;;;;;;4.32;3.42;;;;;;;;;;4882351;29;20025;-39
2021/06/06 08:17:29;;;;;;;6.60;3.47;;;;;;;;;;4882641;29;20029;-39
2021/06/06 08:19:54;;;;;;;7.60;3.83;;;;;;;;;;4882208;29;20047;-39
2021/06/06 08:22:20;;;;;;;8.07;3.95;;;;;;;;;;4882244;29;20021;-39
2021/06/06 08:24:45;;;;;;;4.03;3.63;;;;;;;;;;4882368;29;20037;-39
2021/06/06 08:27:11;;;;;;;6.00;3.80;;;;;;;;;;4880962;29;20380;-39
2021/06/06 08:29:36;;;;;;;4.28;3.30;;;;;;;;;;4882050;29;20089;-39
2021/06/06 08:32:02;;;;;;;4.22;3.25;;;;;;;;;;4880751;29;20041;-40
2021/06/06 08:34:28;;;;;;;5.63;3.30;;;;;;;;;;4881963;29;20032;-39
2021/06/06 08:36:53;;;;;;;6.70;3.40;;;;;;;;;;4882022;29;20072;-39
2021/06/06 08:39:24;;;;;;;5.05;4.15;;;;;;;;;;4881968;29;20388;-39
2021/06/06 08:41:56;;;;;;;5.10;3.63;;;;;;;;;;4880647;29;20488;-39
2021/06/06 08:44:25;;;;;;;6.93;4.03;;;;;;;;;;4881895;29;20125;-39
2021/06/06 08:46:57;;;;;;;5.75;3.67;;;;;;;;;;4881722;29;20028;-40
2021/06/06 08:49:23;;;;;;;6.13;4.32;;;;;;;;;;4881775;29;20041;-39
2021/06/06 08:51:50;;;;;;;3.88;3.38;;;;;;;;;;4881732;29;20028;-39
2021/06/06 08:54:27;;;;;;;6.15;4.10;;;;;;;;;;4881671;29;20489;-39
2021/06/06 08:57:04;;;;;;;9.05;4.45;;;;;;;;;;4881865;29;20041;-39
2021/06/06 08:59:36;;;;;;;7.82;4.50;;;;;;;;;;4881862;29;20087;-40
2021/06/06 09:02:02;;;;;;;7.78;5.20;;;;;;;;;;4880375;29;20089;-39
2021/06/06 09:04:29;;;;;;;8.00;4.75;;;;;;;;;;4881504;29;20040;-40
2021/06/06 09:06:57;;;;;;;8.02;4.78;;;;;;;;;;4881722;29;20033;-40
2021/06/06 09:09:24;;;;;;;8.05;5.35;;;;;;;;;;4881368;29;20036;-39
2021/06/06 09:11:50;;;;;;;8.98;5.72;;;;;;;;;;4881296;29;20029;-39
2021/06/06 09:14:16;;;;;;;7.22;4.55;;;;;;;;;;4881437;29;20028;-39
2021/06/06 09:17:02;;;;;;;7.15;4.57;;;;;;;;;;4880471;29;20032;-39
2021/06/06 09:19:39;;;;;;;7.25;3.75;;;;;;;;;;4881330;29;20567;-39
2021/06/06 09:22:05;;;;;;;5.82;3.90;;;;;;;;;;4881084;29;20048;-39
2021/06/06 09:24:37;;;;;;;5.93;4.28;;;;;;;;;;4881174;29;20021;-39
2021/06/06 09:27:11;;;;;;;5.40;4.18;;;;;;;;;;4879947;29;20460;-39
2021/06/06 09:29:37;;;;;;;6.78;3.65;;;;;;;;;;4881024;29;20093;-40
2021/06/06 09:32:06;;;;;;;5.63;3.85;;;;;;;;;;4881243;29;20021;-40
2021/06/06 09:34:32;;;;;;;4.65;3.67;;;;;;;;;;4880931;29;20039;-39
2021/06/06 09:37:01;;;;;;;4.80;3.80;;;;;;;;;;4880795;29;20049;-39
2021/06/06 09:39:26;;;;;;;5.75;3.60;;;;;;;;;;4881002;29;20041;-39
2021/06/06 09:41:56;;;;;;;5.18;3.30;;;;;;;;;;4880859;29;20033;-39
2021/06/06 09:44:26;;;;;;;6.75;3.90;;;;;;;;;;4879550;29;20123;-40
2021/06/06 09:46:54;;;;;;;6.50;4.03;;;;;;;;;;4880769;29;20029;-39
2021/06/06 09:49:23;;;;;;;5.30;3.83;;;;;;;;;;4880964;29;20049;-39
2021/06/06 09:51:49;;;;;;;4.65;3.45;;;;;;;;;;4880628;29;20100;-39
2021/06/06 09:54:17;;;;;;;4.30;3.38;;;;;;;;;;4880727;29;20036;-39
2021/06/06 09:56:49;;;;;;;5.00;3.13;;;;;;;;;;4880631;29;20025;-39
2021/06/06 09:59:26;;;;;;;3.72;3.33;;;;;;;;;;4880602;29;20124;-39
2021/06/06 10:01:52;;;;;;;3.17;2.85;;;;;;;;;;4880496;29;20081;-39
2021/06/06 10:04:25;;;;;;;3.65;2.92;;;;;;;;;;4879551;29;20025;-39
2021/06/06 10:06:51;;;;;;;5.32;3.25;;;;;;;;;;4879106;29;20064;-39
2021/06/06 10:09:19;;;;;;;4.28;2.65;;;;;;;;;;4879086;29;20044;-40
2021/06/06 10:12:00;;;;;;;3.15;2.72;;;;;;;;;;4880215;29;20033;-40
2021/06/06 10:14:29;;;;;;;4.78;3.70;;;;;;;;;;4880287;29;20392;-39
2021/06/06 10:16:57;;;;;;;5.80;2.80;;;;;;;;;;4880390;29;20027;-39
2021/06/06 10:19:29;;;;;;;5.28;3.72;;;;;;;;;;4879028;29;20033;-39
2021/06/06 10:21:57;;;;;;;5.93;3.25;;;;;;;;;;4880292;29;20025;-39
2021/06/06 10:24:30;;;;;;;3.92;3.40;;;;;;;;;;4880179;29;20028;-39
2021/06/06 10:26:57;;;;;;;6.45;3.50;;;;;;;;;;4879956;29;20061;-39
2021/06/06 10:29:22;;;;;;;3.97;3.15;;;;;;;;;;4879289;29;20064;-39
2021/06/06 10:31:49;;;;;;;3.05;2.75;;;;;;;;;;4879973;29;20412;-39
2021/06/06 10:34:17;;;;;;;3.30;3.00;;;;;;;;;;4880102;29;20033;-39
2021/06/06 10:36:43;;;;;;;4.57;3.45;;;;;;;;;;4879828;29;20412;-39
2021/06/06 10:39:14;;;;;;;4.28;3.42;;;;;;;;;;4879846;29;20037;-39
2021/06/06 10:41:59;;;;;;;5.63;3.25;;;;;;;;;;4880490;29;20494;-39
2021/06/06 10:44:25;;;;;;;5.30;3.63;;;;;;;;;;4880839;29;20107;-39
2021/06/06 10:47:16;;;;;;;4.80;3.28;;;;;;;;;;4880959;29;20457;-39
2021/06/06 10:49:50;;;;;;;9.18;3.78;;;;;;;;;;4881189;29;20053;-39
2021/06/06 10:52:22;;;;;;;6.15;4.05;;;;;;;;;;4880398;29;20036;-39
2021/06/06 10:54:57;;;;;;;4.40;3.13;;;;;;;;;;4878180;29;20437;-39
2021/06/06 10:57:22;;;;;;;5.28;3.72;;;;;;;;;;4879554;29;20460;-39
2021/06/06 10:59:49;;;;;;;8.02;3.53;;;;;;;;;;4879462;29;20049;-39
2021/06/06 11:02:35;;;;;;;10.93;3.38;;;;;;;;;;4879728;29;20088;-39
2021/06/06 11:05:10;;;;;;;5.93;3.25;;;;;;;;;;4879388;29;20056;-39
2021/06/06 11:07:40;;;;;;;9.07;3.60;;;;;;;;;;4879700;29;20072;-39
2021/06/06 11:10:21;;;;;;;4.93;2.95;;;;;;;;;;4879005;29;20036;-39
2021/06/06 11:12:48;;;;;;;7.45;3.22;;;;;;;;;;4879233;29;20044;-38
2021/06/06 11:15:29;;;;;;;3.08;2.78;;;;;;;;;;4878100;29;20167;-38
2021/06/06 11:18:05;;;;;;;3.28;2.97;;;;;;;;;;4879360;29;20052;-39
2021/06/06 11:20:32;;;;;;;4.18;3.40;;;;;;;;;;4879247;29;20033;-39
2021/06/06 11:22:58;;;;;;;7.65;3.35;;;;;;;;;;4879058;29;20043;-39
2021/06/06 11:25:27;;;;;;;3.45;3.15;;;;;;;;;;4879380;29;20440;-39
2021/06/06 11:27:54;;;;;;;4.40;3.40;;;;;;;;;;4879237;29;20119;-38
2021/06/06 11:30:22;;;;;;;3.97;2.90;;;;;;;;;;4879039;29;20040;-39
2021/06/06 11:32:57;;;;;;;3.40;2.53;;;;;;;;;;4879148;29;20021;-38
2021/06/06 11:35:23;;;;;;;6.43;3.08;;;;;;;;;;4879292;29;20085;-39
2021/06/06 11:37:50;;;;;;;3.67;2.92;;;;;;;;;;4877447;29;20440;-39
2021/06/06 11:40:25;;;;;;;4.25;3.35;;;;;;;;;;4878881;29;20029;-38
2021/06/06 11:42:52;;;;;;;3.03;2.65;;;;;;;;;;4877505;29;20041;-38
2021/06/06 11:45:22;;;;;;;4.10;2.60;;;;;;;;;;4877475;29;20032;-38
2021/06/06 11:47:50;;;;;;;2.78;2.47;;;;;;;;;;4878724;29;20040;-39
2021/06/06 11:50:20;;;;;;;6.38;2.38;;;;;;;;;;4878971;29;20048;-39
2021/06/06 11:52:45;;;;;;;3.95;2.60;;;;;;;;;;4878771;29;20536;-38
2021/06/06 11:55:17;;;;;;;4.75;2.40;;;;;;;;;;4879002;29;20036;-38
2021/06/06 11:57:44;;;;;;;3.33;2.22;;;;;;;;;;4879242;29;20037;-38
2021/06/06 12:00:12;;;;;;;3.38;2.35;;;;;;;;;;4878661;29;20105;-39
2021/06/06 12:02:38;;;;;;;2.55;2.22;;;;;;;;;;4879011;29;20037;-38
2021/06/06 12:05:21;;;;;;;5.35;2.50;;;;;;;;;;4878866;29;20027;-38
2021/06/06 12:07:48;;;;;;;3.03;2.10;;;;;;;;;;4877421;29;20118;-39
2021/06/06 12:10:23;;;;;;;2.80;2.50;;;;;;;;;;4878483;29;20124;-38
2021/06/06 12:12:49;;;;;;;3.80;2.72;;;;;;;;;;4877256;29;20037;-38
2021/06/06 12:15:21;;;;;;;3.15;2.53;;;;;;;;;;4878572;29;20047;-38
2021/06/06 12:17:47;;;;;;;2.90;2.30;;;;;;;;;;4878441;29;20029;-38
2021/06/06 12:20:15;;;;;;;5.97;2.22;;;;;;;;;;4878564;29;20097;-38
2021/06/06 12:22:41;;;;;;;2.58;2.20;;;;;;;;;;4878754;29;20392;-38
2021/06/06 12:25:16;;;;;;;2.42;2.22;;;;;;;;;;4878438;29;20021;-39
2021/06/06 12:27:45;;;;;;;3.85;2.80;;;;;;;;;;4878515;29;20084;-38
2021/06/06 12:30:30;;;;;;;3.90;2.72;;;;;;;;;;4878326;29;20029;-38
2021/06/06 12:32:56;;;;;;;2.92;2.50;;;;;;;;;;4878189;29;20041;-39
2021/06/06 12:35:24;;;;;;;3.40;2.63;;;;;;;;;;4878263;29;20044;-39
2021/06/06 12:37:53;;;;;;;3.30;1.73;;;;;;;;;;4878305;29;20053;-39
2021/06/06 12:40:20;;;;;;;2.30;1.42;;;;;;;;;;4877199;29;20116;-38
2021/06/06 12:42:46;;;;;;;4.78;2.10;;;;;;;;;;4878378;29;20227;-39
2021/06/06 12:45:14;;;;;;;2.53;1.70;;;;;;;;;;4878272;29;20104;-38
2021/06/06 12:47:41;;;;;;;3.85;2.15;;;;;;;;;;4878613;29;20555;-38
2021/06/06 12:50:14;;;;;;;1.95;1.58;;;;;;;;;;4878092;29;20041;-39
2021/06/06 12:52:39;;;;;;;3.92;1.52;;;;;;;;;;4880947;29;20028;-39
2021/06/06 12:55:14;;;;;;;5.22;1.80;;;;;;;;;;4881668;29;20047;-38
2021/06/06 12:57:48;;;;;;;2.78;2.13;;;;;;;;;;4881916;29;20029;-39
2021/06/06 13:00:21;;;;;;;2.40;1.52;;;;;;;;;;4882002;29;20037;-39
2021/06/06 13:02:47;;;;;;;2.88;1.80;;;;;;;;;;4881569;29;20044;-39
2021/06/06 13:05:14;;;;;;;4.60;1.77;;;;;;;;;;4881841;29;20029;-43
2021/06/06 13:07:40;;;;;;;1.73;1.63;;;;;;;;;;4881837;29;20037;-39
2021/06/06 13:10:23;;;;;;;2.78;1.67;;;;;;;;;;4881574;29;20029;-39
2021/06/06 13:12:49;;;;;;;2.40;1.77;;;;;;;;;;4881698;29;20041;-39
2021/06/06 13:15:19;;;;;;;2.42;1.65;;;;;;;;;;4880174;29;20092;-39
2021/06/06 13:17:44;;;;;;;2.97;1.88;;;;;;;;;;4880037;29;20104;-38
2021/06/06 13:20:16;;;;;;;3.38;1.58;;;;;;;;;;4881542;29;20491;-38
2021/06/06 13:22:51;;;;;;;3.97;1.60;;;;;;;;;;4881245;29;20029;-38
2021/06/06 13:25:16;;;;;;;5.35;1.65;;;;;;;;;;4881439;29;20391;-39
2021/06/06 13:27:42;;;;;;;10.80;2.17;;;;;;;;;;4881183;29;20036;-38
2021/06/06 13:30:30;;;;;;;2.08;1.42;;;;;;;;;;4880994;29;20132;-38
2021/06/06 13:33:00;;;;;;;5.00;1.50;;;;;;;;;;4882796;29;20048;-38
2021/06/06 13:35:27;;;;;;;2.03;1.42;;;;;;;;;;4881047;29;20104;-39
2021/06/06 13:37:52;;;;;;;1.92;1.60;;;;;;;;;;4880775;29;20063;-39
2021/06/06 13:40:21;;;;;;;1.83;1.58;;;;;;;;;;4880953;29;20033;-39
2021/06/06 13:42:47;;;;;;;2.58;1.60;;;;;;;;;;4880995;29;20033;-38
2021/06/06 13:45:12;;;;;;;3.15;2.05;;;;;;;;;;4880675;29;20043;-39
2021/06/06 13:47:38;;;;;;;6.60;1.58;;;;;;;;;;4880788;29;20036;-39
2021/06/06 13:50:07;;;;;;;5.28;1.95;;;;;;;;;;4880926;29;20032;-39
2021/06/06 13:52:36;;;;;;;1.95;1.58;;;;;;;;;;4880704;29;20029;-39
2021/06/06 13:55:03;;;;;;;1.73;1.52;;;;;;;;;;4879679;29;20081;-39
2021/06/06 13:57:28;;;;;;;3.95;1.95;;;;;;;;;;4880592;29;20076;-39
2021/06/06 13:59:53;;;;;;;1.95;1.75;;;;;;;;;;4880543;29;20025;-40
2021/06/06 14:02:19;;;;;;;2.13;1.38;;;;;;;;;;4880421;29;20503;-39
2021/06/06 14:04:44;;;;;;;1.90;1.70;;;;;;;;;;4880747;29;20027;-40
2021/06/06 14:07:10;;;;;;;4.07;1.52;;;;;;;;;;4880329;29;20041;-39
2021/06/06 14:09:36;;;;;;;3.80;1.58;;;;;;;;;;4880331;29;20112;-39
2021/06/06 14:12:03;;;;;;;1.83;1.40;;;;;;;;;;4880345;29;20037;-38
2021/06/06 14:14:29;;;;;;;3.60;1.75;;;;;;;;;;4880189;29;20031;-38
2021/06/06 14:16:55;;;;;;;2.35;1.58;;;;;;;;;;4880172;29;20029;-38
2021/06/06 14:19:22;;;;;;;3.67;2.00;;;;;;;;;;4880295;29;20112;-39
2021/06/06 14:21:47;;;;;;;3.17;1.63;;;;;;;;;;4880325;29;20032;-39
2021/06/06 14:24:14;;;;;;;2.17;1.80;;;;;;;;;;4878985;29;20044;-40
2021/06/06 14:26:40;;;;;;;2.55;1.75;;;;;;;;;;4880210;29;20025;-38
2021/06/06 14:29:08;;;;;;;2.28;1.77;;;;;;;;;;4880101;29;20032;-38
2021/06/06 14:31:33;;;;;;;5.97;1.90;;;;;;;;;;4878833;29;20040;-39
2021/06/06 14:33:59;;;;;;;2.67;1.65;;;;;;;;;;4880070;29;20032;-39
2021/06/06 14:36:26;;;;;;;1.83;1.33;;;;;;;;;;4879996;29;20052;-39
2021/06/06 14:38:51;;;;;;;1.60;1.48;;;;;;;;;;4879921;29;20105;-39
2021/06/06 14:41:17;;;;;;;4.38;2.13;;;;;;;;;;4879882;29;20501;-39
2021/06/06 14:43:42;;;;;;;2.25;1.73;;;;;;;;;;4879828;29;20029;-40
2021/06/06 14:46:08;;;;;;;1.83;1.45;;;;;;;;;;4879627;29;20032;-39
2021/06/06 14:48:34;;;;;;;2.15;1.50;;;;;;;;;;4879795;29;20080;-39
2021/06/06 14:51:01;;;;;;;1.50;1.35;;;;;;;;;;4879633;29;20033;-39
2021/06/06 14:53:28;;;;;;;1.80;1.40;;;;;;;;;;4879899;29;20029;-39